createdAt,value
2023-05-22T00:02:24.474Z,15.11
2023-05-22T00:04:54.852Z,14.80
2023-05-22T00:07:24.342Z,15.17
2023-05-22T00:09:52.554Z,14.65
2023-05-22T00:12:20.980Z,14.71
2023-05-22T00:14:49.263Z,15.03
2023-05-22T00:17:18.431Z,14.93
2023-05-22T00:19:47.944Z,15.05
2023-05-22T00:22:18.093Z,14.66
2023-05-22T00:24:47.279Z,15.28
2023-05-22T00:27:15.618Z,16.13
2023-05-22T00:29:43.931Z,16.37
2023-05-22T00:32:12.364Z,15.75
2023-05-22T00:34:40.967Z,15.61
2023-05-22T00:37:09.349Z,15.05
2023-05-22T00:39:40.219Z,15.02
2023-05-22T00:42:08.852Z,14.90
2023-05-22T00:44:37.332Z,15.22
2023-05-22T00:47:06.163Z,15.00
2023-05-22T00:49:34.410Z,15.21
2023-05-22T00:52:03.482Z,15.74
2023-05-22T00:54:33.404Z,15.00
2023-05-22T00:57:03.671Z,15.53
2023-05-22T00:59:32.793Z,15.32
2023-05-22T01:02:01.872Z,15.60
2023-05-22T01:04:33.112Z,15.13
2023-05-22T01:07:03.211Z,15.34
2023-05-22T01:09:31.844Z,15.08
2023-05-22T01:12:13.154Z,15.24
2023-05-22T01:14:51.451Z,15.22
2023-05-22T01:17:28.810Z,14.79
2023-05-22T01:20:15.226Z,15.81
2023-05-22T01:23:16.404Z,15.44
2023-05-22T01:26:39.700Z,15.15
2023-05-22T01:29:36.106Z,15.51
2023-05-22T01:35:13.112Z,15.32
2023-05-22T01:37:43.855Z,15.28
2023-05-22T01:40:14.094Z,15.56
2023-05-22T01:42:43.178Z,15.72
2023-05-22T01:45:12.806Z,15.83
2023-05-22T01:47:41.401Z,15.49
2023-05-22T01:50:12.595Z,14.81
2023-05-22T01:52:53.602Z,15.60
2023-05-22T01:55:30.772Z,14.56
2023-05-22T01:58:18.534Z,15.46
2023-05-22T02:00:49.415Z,15.18
2023-05-22T02:03:38.933Z,14.63
2023-05-22T02:06:30.097Z,14.49
2023-05-22T02:08:59.136Z,14.36
2023-05-22T02:11:30.548Z,14.23
2023-05-22T02:13:59.262Z,14.67
2023-05-22T02:16:29.069Z,13.75
2023-05-22T02:19:05.837Z,14.25
2023-05-22T02:21:37.263Z,13.98
2023-05-22T02:24:06.104Z,13.74
2023-05-22T02:26:34.381Z,13.90
2023-05-22T02:29:03.390Z,13.78
2023-05-22T02:31:31.969Z,13.81
2023-05-22T02:34:00.535Z,13.87
2023-05-22T02:36:30.961Z,14.15
2023-05-22T02:39:01.389Z,14.19
2023-05-22T02:41:30.466Z,13.95
2023-05-22T02:43:58.868Z,14.09
2023-05-22T02:46:27.212Z,13.81
2023-05-22T02:48:55.463Z,13.77
2023-05-22T02:51:23.724Z,13.66
2023-05-22T02:53:51.974Z,14.13
2023-05-22T02:56:22.085Z,13.84
2023-05-22T02:58:50.320Z,14.01
2023-05-22T03:01:18.702Z,13.94
2023-05-22T03:03:48.432Z,14.10
2023-05-22T03:06:17.477Z,14.63
2023-05-22T03:08:48.297Z,14.44
2023-05-22T03:11:16.648Z,14.38
2023-05-22T03:13:46.221Z,14.11
2023-05-22T03:16:14.614Z,14.34
2023-05-22T03:18:46.114Z,13.82
2023-05-22T03:21:14.497Z,14.10
2023-05-22T03:23:42.831Z,14.21
2023-05-22T03:26:11.447Z,13.92
2023-05-22T03:28:41.133Z,14.32
2023-05-22T03:31:11.173Z,14.50
2023-05-22T03:33:56.635Z,14.20
2023-05-22T03:36:25.381Z,15.05
2023-05-22T03:38:54.306Z,14.60
2023-05-22T03:41:22.574Z,14.74
2023-05-22T03:43:51.000Z,14.19
2023-05-22T03:46:21.058Z,13.97
2023-05-22T03:48:49.508Z,13.95
2023-05-22T03:51:20.104Z,13.84
2023-05-22T03:53:48.791Z,13.99
2023-05-22T03:56:18.006Z,14.50
2023-05-22T03:58:50.206Z,13.87
2023-05-22T04:01:18.794Z,14.32
2023-05-22T04:03:48.182Z,14.10
2023-05-22T04:06:16.526Z,15.19
2023-05-22T04:08:45.029Z,15.02
2023-05-22T04:11:15.982Z,14.84
2023-05-22T04:13:44.989Z,14.63
2023-05-22T04:16:13.553Z,14.97
2023-05-22T04:18:41.872Z,14.95
2023-05-22T04:21:11.246Z,15.37
2023-05-22T04:23:43.268Z,15.22
2023-05-22T04:26:11.530Z,15.80
2023-05-22T04:28:39.787Z,15.60
2023-05-22T04:31:08.010Z,15.75
2023-05-22T04:33:38.671Z,15.35
2023-05-22T04:36:12.289Z,15.91
2023-05-22T04:38:45.058Z,14.73
2023-05-22T04:41:14.385Z,14.88
2023-05-22T04:43:43.142Z,14.72
2023-05-22T04:46:11.482Z,16.63
2023-05-22T04:48:41.468Z,17.96
2023-05-22T04:51:10.978Z,17.78
2023-05-22T04:53:39.263Z,15.39
2023-05-22T04:56:36.107Z,14.87
2023-05-22T04:59:26.623Z,23.32
2023-05-22T05:01:55.317Z,24.92
2023-05-22T05:04:23.694Z,17.42
2023-05-22T05:06:53.577Z,14.81
2023-05-22T05:09:22.075Z,16.76
2023-05-22T05:11:53.756Z,17.17
2023-05-22T05:14:22.247Z,15.40
2023-05-22T05:16:53.079Z,14.31
2023-05-22T05:19:22.642Z,14.93
2023-05-22T05:21:52.405Z,17.97
2023-05-22T05:24:23.553Z,16.47
2023-05-22T05:26:53.691Z,14.18
2023-05-22T05:29:22.315Z,17.54
2023-05-22T05:31:57.319Z,19.82
2023-05-22T05:34:41.704Z,15.46
2023-05-22T05:37:22.112Z,14.28
2023-05-22T05:39:51.961Z,14.50
2023-05-22T05:42:23.508Z,21.00
2023-05-22T05:44:51.811Z,20.07
2023-05-22T05:47:24.129Z,15.49
2023-05-22T05:49:53.385Z,14.35
2023-05-22T05:52:22.368Z,13.90
2023-05-22T05:54:51.276Z,13.05
2023-05-22T05:57:23.874Z,12.65
2023-05-22T05:59:53.790Z,12.77
2023-05-22T06:02:22.053Z,12.79
2023-05-22T06:04:54.062Z,12.19
2023-05-22T06:07:22.648Z,11.29
2023-05-22T06:09:53.891Z,11.20
2023-05-22T06:12:41.215Z,12.78
2023-05-22T06:15:13.339Z,11.64
2023-05-22T06:17:41.895Z,10.72
2023-05-22T06:20:11.079Z,13.15
2023-05-22T06:22:39.348Z,13.10
2023-05-22T06:25:09.515Z,10.29
2023-05-22T06:27:38.388Z,10.54
2023-05-22T06:30:12.184Z,10.43
2023-05-22T06:32:41.328Z,9.57
2023-05-22T06:35:11.915Z,9.47
2023-05-22T06:37:43.286Z,9.47
2023-05-22T06:40:13.210Z,9.95
2023-05-22T06:42:53.994Z,10.11
2023-05-22T06:45:47.285Z,16.99
2023-05-22T06:48:35.153Z,9.80
2023-05-22T06:51:13.308Z,9.12
2023-05-22T06:53:43.040Z,8.96
2023-05-22T06:56:15.889Z,8.99
2023-05-22T06:58:55.065Z,8.74
2023-05-22T07:01:30.617Z,8.83
2023-05-22T07:04:06.057Z,9.25
2023-05-22T07:06:39.164Z,9.55
2023-05-22T07:09:11.950Z,14.22
2023-05-22T07:11:42.337Z,10.11
2023-05-22T07:14:12.662Z,8.94
2023-05-22T07:16:45.253Z,9.47
2023-05-22T07:19:16.650Z,8.95
2023-05-22T07:21:46.178Z,9.44
2023-05-22T07:24:18.009Z,8.61
2023-05-22T07:26:47.889Z,9.19
2023-05-22T07:29:17.737Z,9.59
2023-05-22T07:31:51.243Z,9.26
2023-05-22T07:34:19.586Z,9.22
2023-05-22T07:36:50.096Z,9.42
2023-05-22T07:39:18.350Z,9.25
2023-05-22T07:41:51.480Z,9.00
2023-05-22T07:44:22.031Z,8.24
2023-05-22T07:46:54.131Z,8.73
2023-05-22T07:49:26.424Z,8.76
2023-05-22T07:51:55.980Z,8.39
2023-05-22T07:54:27.824Z,8.03
2023-05-22T07:56:57.830Z,14.87
2023-05-22T07:59:34.051Z,10.03
2023-05-22T08:02:04.553Z,8.29
2023-05-22T08:04:34.106Z,9.65
2023-05-22T08:07:02.604Z,8.82
2023-05-22T08:09:32.224Z,8.17
2023-05-22T08:12:01.064Z,8.01
2023-05-22T08:14:30.433Z,8.33
2023-05-22T08:17:00.296Z,9.10
2023-05-22T08:19:30.054Z,11.17
2023-05-22T08:21:58.828Z,7.93
2023-05-22T08:24:30.749Z,8.30
2023-05-22T08:27:00.875Z,8.46
2023-05-22T08:29:30.513Z,8.86
2023-05-22T08:31:59.275Z,8.31
2023-05-22T08:34:29.798Z,7.76
2023-05-22T08:36:59.324Z,7.79
2023-05-22T08:39:28.492Z,7.51
2023-05-22T08:41:59.362Z,8.04
2023-05-22T08:44:27.879Z,7.76
2023-05-22T08:47:00.426Z,7.18
2023-05-22T08:49:31.929Z,6.82
2023-05-22T08:52:11.351Z,8.83
2023-05-22T08:54:44.326Z,9.28
2023-05-22T08:57:13.170Z,8.64
2023-05-22T08:59:42.509Z,7.22
2023-05-22T09:02:11.942Z,7.33
2023-05-22T09:04:42.569Z,7.53
2023-05-22T09:07:10.808Z,8.59
2023-05-22T09:09:40.554Z,8.14
2023-05-22T09:12:11.394Z,7.65
2023-05-22T09:14:40.753Z,7.86
2023-05-22T09:17:11.639Z,8.15
2023-05-22T09:19:44.805Z,7.88
2023-05-22T09:22:14.481Z,7.13
2023-05-22T09:24:44.737Z,8.16
2023-05-22T09:27:13.433Z,7.22
2023-05-22T09:29:52.397Z,7.85
2023-05-22T09:32:22.064Z,9.97
2023-05-22T09:34:52.649Z,9.24
2023-05-22T09:37:21.466Z,9.74
2023-05-22T09:39:53.047Z,9.38
2023-05-22T09:42:21.728Z,8.37
2023-05-22T09:44:50.882Z,8.98
2023-05-22T09:47:20.264Z,8.77
2023-05-22T09:49:48.749Z,7.30
2023-05-22T09:52:20.623Z,8.97
2023-05-22T09:54:55.377Z,9.75
2023-05-22T09:57:26.925Z,10.47
2023-05-22T09:59:58.470Z,8.05
2023-05-22T10:02:28.604Z,9.18
2023-05-22T10:04:58.321Z,8.58
2023-05-22T10:07:37.127Z,8.91
2023-05-22T10:10:09.409Z,8.85
2023-05-22T10:12:44.652Z,7.50
2023-05-22T10:15:14.315Z,7.83
2023-05-22T10:17:43.170Z,7.54
2023-05-22T10:20:14.600Z,7.31
2023-05-22T10:22:44.888Z,7.70
2023-05-22T10:25:13.687Z,7.78
2023-05-22T10:27:42.251Z,7.58
2023-05-22T10:30:29.961Z,8.07
2023-05-22T10:33:24.973Z,8.60
2023-05-22T10:35:58.218Z,8.58
2023-05-22T10:38:46.322Z,6.97
2023-05-22T10:41:15.628Z,7.95
2023-05-22T10:43:44.467Z,7.76
2023-05-22T10:46:14.563Z,7.05
2023-05-22T10:48:46.585Z,7.88
2023-05-22T10:51:16.255Z,7.50
2023-05-22T10:54:01.004Z,6.72
2023-05-22T10:56:35.404Z,7.52
2023-05-22T10:59:08.233Z,8.44
2023-05-22T11:01:38.601Z,7.26
2023-05-22T11:04:26.939Z,7.40
2023-05-22T11:07:05.334Z,7.70
2023-05-22T11:09:43.208Z,8.15
2023-05-22T11:12:17.686Z,8.75
2023-05-22T11:14:50.874Z,7.72
2023-05-22T11:17:23.113Z,8.23
2023-05-22T11:20:02.517Z,7.96
2023-05-22T11:22:34.195Z,7.75
2023-05-22T11:25:08.310Z,7.50
2023-05-22T11:27:37.979Z,8.57
2023-05-22T11:30:07.590Z,7.40
2023-05-22T11:32:37.948Z,8.57
2023-05-22T11:35:08.613Z,8.80
2023-05-22T11:37:40.664Z,8.44
2023-05-22T11:40:15.474Z,9.99
2023-05-22T11:42:44.004Z,9.14
2023-05-22T11:45:13.100Z,9.60
2023-05-22T11:47:42.097Z,9.13
2023-05-22T11:50:12.631Z,9.64
2023-05-22T11:52:42.852Z,9.63
2023-05-22T11:55:12.669Z,9.59
2023-05-22T11:57:40.847Z,9.56
2023-05-22T12:00:10.775Z,9.50
2023-05-22T12:02:46.704Z,9.94
2023-05-22T12:05:16.592Z,9.29
2023-05-22T12:07:45.759Z,9.85
2023-05-22T12:10:16.646Z,10.13
2023-05-22T12:12:45.648Z,9.24
2023-05-22T12:15:19.750Z,10.70
2023-05-22T12:17:48.308Z,10.51
2023-05-22T12:20:16.597Z,9.73
2023-05-22T12:22:45.385Z,9.80
2023-05-22T12:25:18.697Z,8.70
2023-05-22T12:27:48.037Z,9.10
2023-05-22T12:30:17.372Z,10.01
2023-05-22T12:32:49.917Z,10.10
2023-05-22T12:35:19.669Z,12.22
2023-05-22T12:37:52.289Z,10.65
2023-05-22T12:40:21.775Z,10.47
2023-05-22T12:42:50.188Z,9.14
2023-05-22T12:45:19.333Z,9.92
2023-05-22T12:47:47.662Z,10.31
2023-05-22T12:50:19.221Z,10.98
2023-05-22T12:52:47.462Z,9.33
2023-05-22T12:55:16.732Z,9.30
2023-05-22T12:57:46.303Z,9.81
2023-05-22T13:00:16.047Z,10.68
2023-05-22T13:02:44.542Z,10.54
2023-05-22T13:05:12.930Z,9.38
2023-05-22T13:07:41.438Z,6.13
2023-05-22T13:10:10.490Z,5.69
2023-05-22T13:12:39.559Z,7.39
2023-05-22T13:15:11.613Z,9.22
2023-05-22T13:17:39.776Z,9.92
2023-05-22T13:20:09.377Z,11.58
2023-05-22T13:22:37.756Z,11.70
2023-05-22T13:25:07.405Z,12.02
2023-05-22T13:27:36.245Z,12.04
2023-05-22T13:30:05.444Z,12.05
2023-05-22T13:32:36.033Z,11.49
2023-05-22T13:35:04.372Z,11.35
2023-05-22T13:37:32.868Z,11.76
2023-05-22T13:40:01.214Z,12.12
2023-05-22T13:42:29.333Z,11.10
2023-05-22T13:44:58.594Z,10.82
2023-05-22T13:47:27.554Z,11.45
2023-05-22T13:49:56.983Z,11.01
2023-05-22T13:52:28.650Z,11.10
2023-05-22T13:54:57.162Z,10.71
2023-05-22T13:57:25.125Z,10.35
2023-05-22T13:59:54.276Z,10.32
2023-05-22T14:02:22.682Z,10.33
2023-05-22T14:04:52.704Z,10.17
2023-05-22T14:07:22.383Z,10.73
2023-05-22T14:09:53.536Z,11.05
2023-05-22T14:12:21.824Z,10.39
2023-05-22T14:14:50.416Z,10.48
2023-05-22T14:17:18.394Z,11.32
2023-05-22T14:19:46.552Z,10.29
2023-05-22T14:22:14.781Z,10.57
2023-05-22T14:24:44.412Z,10.99
2023-05-22T14:27:12.757Z,10.95
2023-05-22T14:29:41.157Z,11.84
2023-05-22T14:32:09.472Z,12.15
2023-05-22T14:34:37.760Z,11.07
2023-05-22T14:37:06.384Z,10.82
2023-05-22T14:39:34.614Z,10.83
2023-05-22T14:42:04.354Z,11.06
2023-05-22T14:44:32.432Z,12.20
2023-05-22T14:47:00.869Z,10.47
2023-05-22T14:49:28.836Z,10.74
2023-05-22T14:51:57.020Z,10.72
2023-05-22T14:54:25.491Z,10.26
2023-05-22T14:56:53.718Z,10.04
2023-05-22T14:59:23.161Z,10.03
2023-05-22T15:01:52.728Z,10.98
2023-05-22T15:04:21.145Z,9.92
2023-05-22T15:06:49.721Z,10.65
2023-05-22T15:09:18.299Z,9.91
2023-05-22T15:11:49.381Z,9.89
2023-05-22T15:14:17.878Z,10.53
2023-05-22T15:16:47.600Z,11.23
2023-05-22T15:19:15.904Z,10.84
2023-05-22T15:21:44.206Z,10.92
2023-05-22T15:24:15.590Z,10.15
2023-05-22T15:26:44.298Z,10.71
2023-05-22T15:29:13.759Z,10.24
2023-05-22T15:31:42.658Z,10.96
2023-05-22T15:34:12.093Z,10.87
2023-05-22T15:36:40.364Z,11.06
2023-05-22T15:39:09.785Z,10.04
2023-05-22T15:41:37.749Z,10.35
2023-05-22T15:44:05.959Z,11.19
2023-05-22T15:46:34.207Z,10.40
2023-05-22T15:49:02.439Z,10.99
2023-05-22T15:51:32.753Z,10.48
2023-05-22T15:54:01.320Z,10.23
2023-05-22T15:56:29.296Z,10.34
2023-05-22T15:58:57.473Z,10.38
2023-05-22T16:01:26.141Z,9.64
2023-05-22T16:03:54.500Z,8.79
2023-05-22T16:06:23.353Z,9.09
2023-05-22T16:08:52.699Z,9.36
2023-05-22T16:11:21.074Z,9.00
2023-05-22T16:13:49.591Z,9.09
2023-05-22T16:16:18.072Z,11.38
2023-05-22T16:18:46.618Z,9.30
2023-05-22T16:21:15.195Z,9.34
2023-05-22T16:23:43.392Z,10.08
2023-05-22T16:26:13.516Z,9.85
2023-05-22T16:28:41.761Z,10.17
2023-05-22T16:31:10.099Z,10.48
2023-05-22T16:33:38.434Z,10.18
2023-05-22T16:36:07.716Z,9.89
2023-05-22T16:38:36.316Z,10.44
2023-05-22T16:41:04.595Z,10.15
2023-05-22T16:43:34.321Z,10.28
2023-05-22T16:46:02.489Z,10.60
2023-05-22T16:48:31.205Z,10.81
2023-05-22T16:50:59.651Z,10.59
2023-05-22T16:53:27.979Z,10.21
2023-05-22T16:55:56.238Z,10.00
2023-05-22T16:58:24.493Z,10.33
2023-05-22T17:00:54.974Z,10.55
2023-05-22T17:03:23.333Z,10.08
2023-05-22T17:05:51.759Z,10.51
2023-05-22T17:08:19.938Z,9.78
2023-05-22T17:10:48.450Z,9.67
2023-05-22T17:13:21.114Z,9.83
2023-05-22T17:15:50.055Z,10.16
2023-05-22T17:18:21.364Z,9.91
2023-05-22T17:20:49.581Z,10.03
2023-05-22T17:23:18.522Z,10.61
2023-05-22T17:25:47.133Z,10.50
2023-05-22T17:28:15.599Z,10.18
2023-05-22T17:30:44.327Z,9.96
2023-05-22T17:33:13.979Z,9.48
2023-05-22T17:35:43.849Z,9.75
2023-05-22T17:38:12.178Z,9.21
2023-05-22T17:40:45.320Z,9.35
2023-05-22T17:43:14.731Z,9.76
2023-05-22T17:45:44.541Z,9.07
2023-05-22T17:48:14.554Z,9.45
2023-05-22T17:50:44.403Z,9.02
2023-05-22T17:53:13.479Z,8.99
2023-05-22T17:55:41.670Z,9.25
2023-05-22T17:58:10.451Z,9.41
2023-05-22T18:00:38.797Z,9.03
2023-05-22T18:03:08.047Z,9.39
2023-05-22T18:05:36.487Z,8.99
2023-05-22T18:08:06.144Z,8.92
2023-05-22T18:10:34.140Z,9.36
2023-05-22T18:13:02.108Z,9.30
2023-05-22T18:15:30.055Z,9.42
2023-05-22T18:17:58.219Z,9.47
2023-05-22T18:20:26.479Z,9.55
2023-05-22T18:22:54.598Z,11.78
2023-05-22T18:25:24.782Z,13.73
2023-05-22T18:27:52.796Z,11.98
2023-05-22T18:30:21.273Z,12.01
2023-05-22T18:32:49.800Z,9.89
2023-05-22T18:35:18.327Z,9.82
2023-05-22T18:37:46.879Z,11.44
2023-05-22T18:40:16.010Z,18.95
2023-05-22T18:42:45.582Z,23.37
2023-05-22T18:45:14.347Z,12.77
2023-05-22T18:47:42.976Z,10.44
2023-05-22T18:50:12.323Z,10.03
2023-05-22T18:52:40.968Z,9.79
2023-05-22T18:55:09.863Z,9.96
2023-05-22T18:57:38.175Z,9.81
2023-05-22T19:00:10.349Z,19.04
2023-05-22T19:02:38.532Z,14.40
2023-05-22T19:05:08.462Z,13.69
2023-05-22T19:07:36.534Z,11.21
2023-05-22T19:10:07.140Z,9.45
2023-05-22T19:12:36.240Z,10.10
2023-05-22T19:15:05.021Z,10.39
2023-05-22T19:17:34.786Z,10.19
2023-05-22T19:20:06.294Z,10.15
2023-05-22T19:22:35.102Z,10.46
2023-05-22T19:25:03.397Z,10.60
2023-05-22T19:27:31.686Z,10.45
2023-05-22T19:29:59.960Z,10.25
2023-05-22T19:32:28.182Z,10.05
2023-05-22T19:34:57.731Z,9.66
2023-05-22T19:37:25.849Z,9.65
2023-05-22T19:39:55.094Z,10.04
2023-05-22T19:42:23.235Z,12.11
2023-05-22T19:44:51.419Z,14.95
2023-05-22T19:47:19.607Z,13.06
2023-05-22T19:49:47.785Z,10.14
2023-05-22T19:52:17.476Z,10.02
2023-05-22T19:54:45.673Z,10.57
2023-05-22T19:57:13.831Z,12.47
2023-05-22T19:59:42.051Z,12.92
2023-05-22T20:02:10.532Z,11.11
2023-05-22T20:04:40.187Z,10.79
2023-05-22T20:07:11.050Z,14.21
2023-05-22T20:09:40.897Z,14.29
2023-05-22T20:12:09.599Z,11.73
2023-05-22T20:14:37.913Z,10.90
2023-05-22T20:17:06.370Z,10.15
2023-05-22T20:19:35.753Z,10.36
2023-05-22T20:22:05.564Z,10.59
2023-05-22T20:24:35.595Z,9.92
2023-05-22T20:27:06.990Z,10.30
2023-05-22T20:29:35.358Z,10.21
2023-05-22T20:32:04.096Z,11.27
2023-05-22T20:34:32.372Z,10.64
2023-05-22T20:37:00.763Z,10.65
2023-05-22T20:39:29.394Z,10.80
2023-05-22T20:41:57.636Z,10.72
2023-05-22T20:44:27.155Z,10.53
2023-05-22T20:46:55.395Z,10.89
2023-05-22T20:49:23.984Z,10.61
2023-05-22T20:51:52.248Z,10.35
2023-05-22T20:54:20.482Z,10.79
2023-05-22T20:56:48.731Z,10.77
2023-05-22T20:59:19.252Z,11.55
2023-05-22T21:01:49.005Z,11.53
2023-05-22T21:04:17.357Z,11.30
2023-05-22T21:06:45.647Z,11.67
2023-05-22T21:09:13.660Z,11.42
2023-05-22T21:11:41.726Z,11.54
2023-05-22T21:14:09.971Z,11.99
2023-05-22T21:16:39.588Z,11.53
2023-05-22T21:19:09.348Z,11.57
2023-05-22T21:24:33.555Z,11.66
2023-05-22T21:27:01.999Z,12.49
2023-05-22T21:29:30.027Z,12.16
2023-05-22T21:31:58.097Z,12.04
2023-05-22T21:34:27.721Z,11.97
2023-05-22T21:36:55.988Z,11.65
2023-05-22T21:39:24.247Z,11.86
2023-05-22T21:41:52.897Z,12.24
2023-05-22T21:44:21.086Z,12.44
2023-05-22T21:46:49.195Z,12.14
2023-05-22T21:49:17.935Z,12.40
2023-05-22T21:51:48.031Z,12.21
2023-05-22T21:54:16.693Z,12.28
2023-05-22T21:56:44.819Z,12.25
2023-05-22T21:59:13.053Z,12.38
2023-05-22T22:01:41.654Z,12.47
2023-05-22T22:04:10.119Z,12.42
2023-05-22T22:06:38.431Z,12.37
2023-05-22T22:09:09.187Z,12.49
2023-05-22T22:11:37.493Z,12.49
2023-05-22T22:14:07.187Z,12.56
2023-05-22T22:16:36.405Z,12.55
2023-05-22T22:19:04.933Z,12.16
2023-05-22T22:21:34.260Z,12.31
2023-05-22T22:24:02.602Z,12.13
2023-05-22T22:26:32.333Z,12.03
2023-05-22T22:29:00.510Z,12.04
2023-05-22T22:31:28.694Z,12.55
2023-05-22T22:33:57.039Z,11.52
2023-05-22T22:36:25.412Z,12.06
2023-05-22T22:38:53.648Z,12.03
2023-05-22T22:41:21.874Z,11.01
2023-05-22T22:43:52.700Z,11.58
2023-05-22T22:46:22.421Z,11.33
2023-05-22T22:48:51.137Z,11.38
2023-05-22T22:51:20.087Z,11.15
2023-05-22T22:53:48.417Z,10.80
2023-05-22T22:56:16.472Z,11.05
2023-05-22T22:58:44.661Z,11.56
2023-05-22T23:01:14.291Z,11.53
2023-05-22T23:03:42.593Z,10.98
2023-05-22T23:06:11.150Z,11.50
2023-05-22T23:08:39.078Z,11.54
2023-05-22T23:11:07.381Z,11.77
2023-05-22T23:13:36.522Z,11.73
2023-05-22T23:16:04.982Z,11.63
2023-05-22T23:18:34.547Z,11.44
2023-05-22T23:21:02.922Z,11.80
2023-05-22T23:23:31.459Z,11.75
2023-05-22T23:25:59.637Z,11.80
2023-05-22T23:28:27.871Z,11.73
2023-05-22T23:30:55.774Z,11.49
2023-05-22T23:33:23.744Z,11.34
2023-05-22T23:35:53.194Z,11.49
2023-05-22T23:38:21.432Z,10.85
2023-05-22T23:40:49.685Z,11.05
2023-05-22T23:43:20.673Z,11.01
2023-05-22T23:45:49.283Z,11.06
2023-05-22T23:48:17.495Z,10.88
2023-05-22T23:50:45.770Z,11.24
2023-05-22T23:53:15.041Z,10.99
2023-05-22T23:55:43.356Z,11.16
2023-05-22T23:58:11.687Z,10.63
